Sapphire Coast — WDJ2691 — position and weather

sailwx.info

Track history (hours):
 
Tides and Currents Weather Stations Pressure Air Temp Water Temp Dewpoint Dewpoint Depression Visibility Wind Speed Wind Dir Waves Ship Positions

Sapphire Coast

Owner: M/V Sapphire Coast, LC, Chesapeake City, MD. More information available from US FCC via Universal Licensing System and Coast Guard Vessel Documentation Center.

Last reported at 2017-Nov-17 17:15 UTC. Time now 2017-Nov-19 05:05 UTC.
Position N 41°14' W 072°10'.

Length 38 m; draft 5.3 m.

Type: Tug. MMSI: 367002660.

Date/timePositionNaut miles runAvg speedWind from/ knotsBaromVisibWave heightAir tempDewpointWater temp
2017-Nov-17 17:15N 41°14' W 072°10'3 8.8
2017-Nov-17 16:53N 41°13' W 072°15'3 8.7
2017-Nov-17 16:29N 41°12' W 072°19'4 8.3
2017-Nov-17 16:00N 41°11' W 072°24'4 7.8
2017-Nov-17 15:30N 41°10' W 072°29'4 7.4
2017-Nov-17 15:00N 41°10' W 072°34'4 7.0
2017-Nov-17 14:29N 41°10' W 072°39'53 2.3
2017-Nov-16 14:52N 40°52' W 073°45'3 7.1
2017-Nov-16 14:30N 40°49' W 073°47'3 5.3
2017-Nov-16 13:59N 40°48' W 073°50'3 6.7
2017-Nov-16 13:30N 40°48' W 073°54'3 5.5
2017-Nov-16 12:58N 40°46' W 073°57'2 4.6
2017-Nov-16 12:30N 40°44' W 073°58'2 4.2
2017-Nov-16 12:00N 40°42' W 073°60'2 3.3
2017-Nov-16 11:30N 40°44' W 074°01'3 5.9
2017-Nov-16 11:00N 40°46' W 074°00'3 5.9
2017-Nov-16 10:30N 40°49' W 073°58'3 5.8
2017-Nov-16 10:00N 40°52' W 073°57'3 5.3
2017-Nov-16 09:30N 40°54' W 073°55'3 5.1
2017-Nov-16 09:00N 40°56' W 073°55'  
2017-Nov-08 05:08N 40°56' W 073°55'2 9.7
2017-Nov-08 04:58N 40°54' W 073°55'5 9.8
2017-Nov-08 04:30N 40°50' W 073°57'5 9.9
2017-Nov-08 04:00N 40°46' W 074°00'5 9.5
2017-Nov-08 03:30N 40°41' W 074°02'2 3.4
2017-Nov-08 03:00N 40°40' W 074°01'1 1.9
2017-Nov-08 02:30N 40°40' W 074°00'0 0.0
2017-Nov-08 02:00N 40°40' W 074°00'0 0.0
2017-Nov-08 01:30N 40°40' W 074°00'0 0.0
2017-Nov-08 01:00N 40°40' W 074°00'0 0.0
2017-Nov-08 00:30N 40°40' W 074°00'0 0.0
2017-Nov-08 00:00N 40°40' W 074°00'0 0.0
2017-Nov-07 23:30N 40°40' W 074°00'0 0.0
2017-Nov-07 23:00N 40°40' W 074°00'0 0.0
2017-Nov-07 22:30N 40°40' W 074°00'0 0.0
2017-Nov-07 22:00N 40°40' W 074°00'0 0.0
2017-Nov-07 21:30N 40°40' W 074°00'0 0.0
2017-Nov-07 21:00N 40°40' W 074°00'0 0.0
2017-Nov-07 20:30N 40°40' W 074°00'0 0.0
2017-Nov-07 20:00N 40°40' W 074°00'0 0.0
2017-Nov-07 19:30N 40°40' W 074°00'0 0.0
2017-Nov-07 19:00N 40°40' W 074°00'0 0.0
2017-Nov-07 18:30N 40°40' W 074°00'0 0.0
2017-Nov-07 18:00N 40°40' W 074°00'0 0.0
2017-Nov-07 17:30N 40°40' W 074°00'  
Track history (hours):
 
Tides and Currents Weather Stations Pressure Air Temp Water Temp Dewpoint Dewpoint Depression Visibility Wind Speed Wind Dir Waves Ship Positions

Sapphire Coast

Owner: M/V Sapphire Coast, LC, Chesapeake City, MD. More information available from US FCC via Universal Licensing System and Coast Guard Vessel Documentation Center.

Last reported at 2017-Nov-17 17:15 UTC. Time now 2017-Nov-19 05:05 UTC.
Position N 41°14' W 072°10'.

Length 38 m; draft 5.3 m.

Type: Tug. MMSI: 367002660.

Date/timePositionNaut miles runAvg speedWind from/ knotsBaromVisibWave heightAir tempDewpointWater temp
2017-Nov-17 17:15N 41°14' W 072°10'3 8.8
2017-Nov-17 16:53N 41°13' W 072°15'3 8.7
2017-Nov-17 16:29N 41°12' W 072°19'4 8.3
2017-Nov-17 16:00N 41°11' W 072°24'4 7.8
2017-Nov-17 15:30N 41°10' W 072°29'4 7.4
2017-Nov-17 15:00N 41°10' W 072°34'4 7.0
2017-Nov-17 14:29N 41°10' W 072°39'53 2.3
2017-Nov-16 14:52N 40°52' W 073°45'3 7.1
2017-Nov-16 14:30N 40°49' W 073°47'3 5.3
2017-Nov-16 13:59N 40°48' W 073°50'3 6.7
2017-Nov-16 13:30N 40°48' W 073°54'3 5.5
2017-Nov-16 12:58N 40°46' W 073°57'2 4.6
2017-Nov-16 12:30N 40°44' W 073°58'2 4.2
2017-Nov-16 12:00N 40°42' W 073°60'2 3.3
2017-Nov-16 11:30N 40°44' W 074°01'3 5.9
2017-Nov-16 11:00N 40°46' W 074°00'3 5.9
2017-Nov-16 10:30N 40°49' W 073°58'3 5.8
2017-Nov-16 10:00N 40°52' W 073°57'3 5.3
2017-Nov-16 09:30N 40°54' W 073°55'3 5.1
2017-Nov-16 09:00N 40°56' W 073°55'  
2017-Nov-08 05:08N 40°56' W 073°55'2 9.7
2017-Nov-08 04:58N 40°54' W 073°55'5 9.8
2017-Nov-08 04:30N 40°50' W 073°57'5 9.9
2017-Nov-08 04:00N 40°46' W 074°00'5 9.5
2017-Nov-08 03:30N 40°41' W 074°02'2 3.4
2017-Nov-08 03:00N 40°40' W 074°01'1 1.9
2017-Nov-08 02:30N 40°40' W 074°00'0 0.0
2017-Nov-08 02:00N 40°40' W 074°00'0 0.0
2017-Nov-08 01:30N 40°40' W 074°00'0 0.0
2017-Nov-08 01:00N 40°40' W 074°00'0 0.0
2017-Nov-08 00:30N 40°40' W 074°00'0 0.0
2017-Nov-08 00:00N 40°40' W 074°00'0 0.0
2017-Nov-07 23:30N 40°40' W 074°00'0 0.0
2017-Nov-07 23:00N 40°40' W 074°00'0 0.0
2017-Nov-07 22:30N 40°40' W 074°00'0 0.0
2017-Nov-07 22:00N 40°40' W 074°00'0 0.0
2017-Nov-07 21:30N 40°40' W 074°00'0 0.0
2017-Nov-07 21:00N 40°40' W 074°00'0 0.0
2017-Nov-07 20:30N 40°40' W 074°00'0 0.0
2017-Nov-07 20:00N 40°40' W 074°00'0 0.0
2017-Nov-07 19:30N 40°40' W 074°00'0 0.0
2017-Nov-07 19:00N 40°40' W 074°00'0 0.0
2017-Nov-07 18:30N 40°40' W 074°00'0 0.0
2017-Nov-07 18:00N 40°40' W 074°00'0 0.0
2017-Nov-07 17:30N 40°40' W 074°00'  

Dump ship's entire track history